Time;durP1;ratioP1;P1;durP2;ratioP2;P2;SDS_P1;SDS_P2;PMS_P1;PMS_P2;Temp;Humidity;BMP_temperature;BMP_pressure;BME280_temperature;BME280_humidity;BME280_pressure;Samples;Min_cycle;Max_cycle;Signal;HPM_P1;HPM_P2
2023/10/15 04:02:31;;;;;;;0.60;0.10;;;10.70;7.20;;;;;;5085680;23;20549;-71
2023/10/15 04:05:08;;;;;;;0.60;0.10;;;10.70;8.90;;;;;;5014739;28;20530;-70
2023/10/15 04:07:39;;;;;;;0.70;0.30;;;10.70;9.40;;;;;;5006667;28;20448;-70
2023/10/15 04:10:08;;;;;;;0.60;0.10;;;10.50;8.40;;;;;;4991115;28;20532;-72
2023/10/15 04:12:40;;;;;;;0.60;0.10;;;10.20;10.20;;;;;;4986253;28;20448;-71
2023/10/15 04:15:14;;;;;;;0.60;0.10;;;9.90;14.80;;;;;;4980928;28;20792;-70
2023/10/15 04:17:48;;;;;;;0.60;0.10;;;10.00;17.50;;;;;;4994712;28;20483;-70
2023/10/15 04:20:23;;;;;;;0.60;0.10;;;10.20;19.40;;;;;;4978754;28;20825;-72
2023/10/15 04:22:52;;;;;;;0.60;0.10;;;10.30;20.70;;;;;;4994818;28;20444;-71
2023/10/15 04:25:25;;;;;;;0.60;0.10;;;;;;;;;;5033116;23;20519;-73
2023/10/15 04:27:54;;;;;;;0.60;0.10;;;10.00;19.50;;;;;;4996163;28;20982;-70
2023/10/15 04:30:23;;;;;;;0.60;0.10;;;9.90;22.30;;;;;;4994872;28;20528;-72
2023/10/15 04:32:56;;;;;;;0.60;0.10;;;10.00;23.00;;;;;;4994054;28;20973;-72
2023/10/15 04:35:29;;;;;;;0.60;0.10;;;10.10;23.20;;;;;;4975416;28;21062;-73
2023/10/15 04:37:59;;;;;;;0.60;0.10;;;;;;;;;;4974868;28;20526;-73
2023/10/15 04:40:27;;;;;;;0.60;0.10;;;9.90;22.20;;;;;;4975058;28;20489;-73
2023/10/15 04:42:59;;;;;;;0.60;0.10;;;9.80;20.70;;;;;;4965302;28;20458;-73
2023/10/15 04:45:39;;;;;;;0.60;0.10;;;9.80;22.20;;;;;;4974827;28;20476;-72
2023/10/15 04:48:15;;;;;;;0.60;0.10;;;9.70;21.20;;;;;;4975057;28;20456;-72
2023/10/15 04:50:45;;;;;;;0.60;0.10;;;9.50;27.80;;;;;;4975494;28;20489;-73
2023/10/15 04:53:24;;;;;;;0.60;0.10;;;9.60;30.90;;;;;;4963781;28;20454;-72
2023/10/15 04:55:54;;;;;;;0.60;0.27;;;9.60;31.10;;;;;;4972820;28;21030;-71
2023/10/15 04:58:27;;;;;;;0.60;0.10;;;9.60;30.90;;;;;;4974595;28;20445;-72
2023/10/15 05:00:55;;;;;;;0.60;0.10;;;9.50;30.10;;;;;;4974693;28;20548;-72
2023/10/15 05:03:25;;;;;;;0.60;0.10;;;9.60;33.10;;;;;;4966904;28;20454;-73
2023/10/15 05:05:55;;;;;;;0.60;0.10;;;9.80;34.00;;;;;;4974197;28;20842;-73
2023/10/15 05:08:24;;;;;;;0.60;0.10;;;9.80;33.20;;;;;;4974468;28;20452;-73
2023/10/15 05:10:52;;;;;;;0.60;0.10;;;9.80;30.40;;;;;;4974729;28;20442;-72
2023/10/15 05:13:21;;;;;;;0.60;0.10;;;;;;;;;;4966318;28;20508;-72
2023/10/15 05:15:49;;;;;;;0.60;0.10;;;9.80;29.80;;;;;;4974631;28;20449;-72
2023/10/15 05:18:18;;;;;;;1.23;1.13;;;9.80;30.00;;;;;;4974565;28;20466;-72
2023/10/15 05:20:50;;;;;;;0.60;0.10;;;9.80;28.90;;;;;;4969738;28;20479;-73
2023/10/15 05:23:20;;;;;;;0.60;0.20;;;9.70;27.70;;;;;;4974486;28;20540;-73
2023/10/15 05:25:49;;;;;;;0.60;0.10;;;9.60;28.40;;;;;;4973941;28;20532;-72
2023/10/15 05:28:17;;;;;;;0.60;0.10;;;9.50;28.90;;;;;;4974039;28;20797;-72
2023/10/15 05:30:45;;;;;;;0.60;0.10;;;9.30;31.10;;;;;;4969581;28;20486;-72
2023/10/15 05:33:13;;;;;;;1.00;0.30;;;9.20;37.50;;;;;;4973902;28;20941;-73
2023/10/15 05:35:46;;;;;;;1.30;1.20;;;9.00;49.40;;;;;;4974023;28;20465;-71
2023/10/15 05:38:16;;;;;;;0.60;0.20;;;8.80;57.70;;;;;;4963238;28;20456;-72
2023/10/15 05:40:45;;;;;;;0.73;0.20;;;8.60;71.70;;;;;;4975393;28;20538;-70
2023/10/15 05:43:13;;;;;;;0.60;0.20;;;8.50;85.20;;;;;;4978977;28;20529;-70
2023/10/15 05:45:42;;;;;;;0.60;0.10;;;8.60;91.80;;;;;;4978583;28;20465;-71
2023/10/15 05:48:10;;;;;;;0.60;0.10;;;8.70;92.80;;;;;;4962806;28;20461;-73
2023/10/15 05:50:39;;;;;;;0.60;0.10;;;8.70;93.10;;;;;;4972585;28;20446;-73
2023/10/15 05:53:07;;;;;;;0.50;0.10;;;8.80;93.10;;;;;;4973554;28;20888;-73
2023/10/15 05:55:37;;;;;;;0.60;0.20;;;9.00;93.00;;;;;;4973756;28;20472;-72
2023/10/15 05:58:07;;;;;;;0.60;0.10;;;;;;;;;;4973604;28;20448;-73
2023/10/15 06:00:39;;;;;;;0.50;0.10;;;9.10;91.10;;;;;;4973571;28;20844;-73
2023/10/15 06:03:08;;;;;;;0.57;0.10;;;;;;;;;;4970448;28;20472;-72
2023/10/15 06:05:37;;;;;;;1.03;0.60;;;9.20;85.90;;;;;;4969005;28;20988;-73
2023/10/15 06:08:06;;;;;;;0.60;0.10;;;9.30;83.40;;;;;;4973157;28;21199;-72
2023/10/15 06:10:35;;;;;;;0.83;0.83;;;9.30;80.80;;;;;;4963656;28;20455;-72
2023/10/15 06:13:03;;;;;;;0.60;0.30;;;9.40;76.60;;;;;;4954465;29;20886;-73
2023/10/15 06:15:31;;;;;;;0.60;0.10;;;9.40;75.00;;;;;;4954307;28;20504;-73
2023/10/15 06:17:59;;;;;;;0.70;0.50;;;9.40;71.20;;;;;;4953810;28;20545;-73
2023/10/15 06:20:28;;;;;;;0.60;0.10;;;9.40;73.80;;;;;;4953513;28;20949;-72
2023/10/15 06:22:57;;;;;;;0.60;0.10;;;;;;;;;;4951382;29;20506;-74
2023/10/15 06:25:24;;;;;;;0.50;0.10;;;9.50;71.00;;;;;;4958396;28;20487;-73
2023/10/15 06:27:54;;;;;;;0.60;0.10;;;9.40;68.30;;;;;;4953454;28;20526;-73
2023/10/15 06:30:22;;;;;;;0.87;0.30;;;9.00;70.90;;;;;;4953331;29;20900;-72
2023/10/15 06:32:53;;;;;;;0.57;0.17;;;9.00;81.60;;;;;;4953551;28;20455;-73
2023/10/15 06:35:25;;;;;;;0.93;0.30;;;9.00;83.90;;;;;;4953195;28;20955;-73
2023/10/15 06:37:55;;;;;;;0.60;0.10;;;9.00;84.70;;;;;;4953391;28;20915;-73
2023/10/15 06:40:24;;;;;;;0.50;0.10;;;8.90;84.00;;;;;;4953577;28;20450;-73
2023/10/15 06:43:00;;;;;;;0.57;0.10;;;9.00;90.30;;;;;;4953241;28;20478;-72
2023/10/15 06:45:29;;;;;;;0.60;0.13;;;9.00;90.40;;;;;;4950819;29;20536;-73
2023/10/15 06:47:57;;;;;;;0.50;0.10;;;8.90;90.90;;;;;;4952235;28;20546;-73
2023/10/15 06:50:25;;;;;;;2.90;2.20;;;8.80;93.10;;;;;;4953449;29;20534;-74
2023/10/15 06:52:55;;;;;;;0.60;0.10;;;8.80;97.70;;;;;;4953224;28;20486;-74
2023/10/15 06:55:24;;;;;;;0.50;0.10;;;8.80;98.90;;;;;;4953385;28;20541;-72
2023/10/15 06:57:54;;;;;;;0.77;0.30;;;8.80;99.90;;;;;;4953390;28;20446;-71
2023/10/15 07:00:22;;;;;;;0.60;0.30;;;9.00;99.90;;;;;;4953276;28;20610;-72
2023/10/15 07:02:51;;;;;;;1.07;0.30;;;9.00;99.00;;;;;;4953156;28;20908;-72
2023/10/15 07:05:20;;;;;;;3.03;1.03;;;;;;;;;;4957360;28;20929;-73
2023/10/15 07:07:48;;;;;;;0.50;0.10;;;9.30;99.30;;;;;;4956653;28;20980;-72
2023/10/15 07:10:18;;;;;;;2.70;0.50;;;9.20;94.50;;;;;;4953235;28;20533;-70
2023/10/15 07:12:47;;;;;;;0.60;0.20;;;9.10;95.60;;;;;;4953346;28;20450;-72
2023/10/15 07:15:20;;;;;;;0.60;0.10;;;9.30;96.50;;;;;;4952911;28;20842;-73
2023/10/15 07:17:49;;;;;;;0.60;0.10;;;9.40;96.00;;;;;;4953777;28;20447;-73
2023/10/15 07:20:18;;;;;;;0.57;0.10;;;9.50;94.60;;;;;;4953525;28;20558;-73
2023/10/15 07:22:49;;;;;;;0.70;0.30;;;9.60;93.90;;;;;;4953209;28;20485;-72
2023/10/15 07:25:18;;;;;;;0.60;0.10;;;9.70;92.30;;;;;;4945166;29;20470;-73
2023/10/15 07:27:47;;;;;;;0.60;0.40;;;9.70;87.70;;;;;;4952626;28;20810;-73
2023/10/15 07:30:19;;;;;;;0.60;0.10;;;9.70;84.30;;;;;;4952656;28;21169;-72
2023/10/15 07:32:48;;;;;;;0.60;0.10;;;8.60;81.90;;;;;;4952783;28;20477;-72
2023/10/15 07:35:16;;;;;;;0.60;0.10;;;9.80;83.50;;;;;;4949136;28;20852;-73
2023/10/15 07:37:46;;;;;;;0.60;0.30;;;9.90;79.60;;;;;;4956024;28;20926;-73
2023/10/15 07:40:17;;;;;;;0.70;0.60;;;10.00;77.00;;;;;;4956428;28;20447;-72
2023/10/15 07:42:48;;;;;;;0.60;0.10;;;10.00;76.80;;;;;;4956872;28;20532;-73
2023/10/15 07:45:18;;;;;;;0.60;0.30;;;10.00;74.00;;;;;;4956763;28;20533;-73
2023/10/15 07:47:47;;;;;;;0.60;0.20;;;10.00;73.00;;;;;;4956280;28;20921;-73
2023/10/15 07:50:18;;;;;;;0.60;0.10;;;10.00;73.50;;;;;;4956560;28;20540;-73
2023/10/15 07:52:46;;;;;;;0.60;0.10;;;9.90;72.80;;;;;;4956188;28;20472;-74
2023/10/15 07:55:14;;;;;;;0.60;0.10;;;10.00;75.20;;;;;;4956603;28;20508;-73
2023/10/15 07:57:42;;;;;;;0.50;0.10;;;10.00;75.00;;;;;;4956283;28;20442;-73
2023/10/15 08:00:15;;;;;;;1.37;1.27;;;10.10;75.30;;;;;;4956249;28;20549;-73
2023/10/15 08:02:45;;;;;;;0.87;0.50;;;10.10;72.10;;;;;;4956627;28;20549;-73
2023/10/15 08:05:14;;;;;;;0.93;0.60;;;10.00;69.20;;;;;;4956044;28;20557;-71
2023/10/15 08:07:43;;;;;;;0.60;0.10;;;10.00;71.00;;;;;;4956661;28;20533;-71
2023/10/15 08:10:11;;;;;;;0.60;0.10;;;7.00;63.20;;;;;;4955679;28;20450;-72
2023/10/15 08:12:39;;;;;;;1.43;1.30;;;9.80;68.50;;;;;;4948747;28;20531;-70
2023/10/15 08:15:08;;;;;;;0.60;0.20;;;9.90;71.00;;;;;;4955387;28;20477;-71
2023/10/15 08:17:36;;;;;;;0.60;0.10;;;9.80;73.80;;;;;;4949918;28;20482;-72
2023/10/15 08:20:09;;;;;;;0.60;0.10;;;10.00;74.50;;;;;;4955455;28;20841;-73
2023/10/15 08:22:40;;;;;;;0.70;0.40;;;10.00;74.30;;;;;;4955516;28;20486;-71
2023/10/15 08:25:13;;;;;;;0.60;0.10;;;10.30;94.40;;;;;;4954889;28;20489;-71
2023/10/15 08:27:44;;;;;;;0.60;0.10;;;10.70;99.90;;;;;;4956223;28;20439;-72
2023/10/15 08:30:13;;;;;;;0.60;0.10;;;11.20;99.90;;;;;;4955758;28;20486;-70
2023/10/15 08:32:41;;;;;;;0.60;0.10;;;11.40;99.90;;;;;;4955800;28;20514;-71
2023/10/15 08:35:13;;;;;;;0.60;0.10;;;11.70;99.90;;;;;;4964267;28;20539;-71
2023/10/15 08:37:42;;;;;;;1.33;1.23;;;11.50;92.30;;;;;;4961883;28;20456;-71
2023/10/15 08:40:15;;;;;;;0.60;0.10;;;11.80;99.90;;;;;;4974435;28;20454;-71
2023/10/15 08:42:51;;;;;;;0.60;0.10;;;12.10;99.90;;;;;;4972446;28;20485;-71
2023/10/15 08:45:21;;;;;;;0.60;0.10;;;12.20;79.10;;;;;;4974514;28;20556;-73
2023/10/15 08:47:50;;;;;;;0.60;0.10;;;12.30;54.30;;;;;;4974098;28;20454;-72
2023/10/15 08:50:21;;;;;;;0.60;0.10;;;12.30;41.30;;;;;;4972311;28;21195;-71
2023/10/15 08:52:52;;;;;;;0.60;0.10;;;12.30;20.50;;;;;;4971100;28;20493;-70
2023/10/15 08:55:22;;;;;;;0.60;0.10;;;12.10;21.10;;;;;;4964606;28;20482;-70
2023/10/15 08:57:54;;;;;;;0.60;0.10;;;12.10;19.90;;;;;;4956607;28;20447;-71
2023/10/15 09:00:27;;;;;;;0.60;0.23;;;12.20;16.60;;;;;;4949177;28;20443;-72
2023/10/15 09:03:01;;;;;;;0.60;0.10;;;12.20;18.00;;;;;;4955634;28;20823;-72
2023/10/15 09:05:33;;;;;;;0.90;0.73;;;12.20;13.40;;;;;;4955161;28;20985;-72
2023/10/15 09:08:06;;;;;;;0.60;0.10;;;12.30;15.40;;;;;;4954907;28;20473;-71
2023/10/15 09:10:36;;;;;;;0.60;0.10;;;12.20;5.40;;;;;;4955241;28;20964;-72
2023/10/15 09:13:05;;;;;;;0.60;0.10;;;12.20;1.00;;;;;;4955661;28;20443;-72
2023/10/15 09:15:33;;;;;;;0.60;0.10;;;12.20;1.00;;;;;;4957032;28;21021;-71
2023/10/15 09:18:01;;;;;;;0.60;0.10;;;12.10;1.00;;;;;;4954673;28;20450;-70
2023/10/15 09:20:33;;;;;;;0.60;0.10;;;12.10;1.00;;;;;;4956612;28;20447;-70
2023/10/15 09:23:02;;;;;;;0.90;0.40;;;12.10;1.00;;;;;;4955631;28;20498;-71
2023/10/15 09:25:31;;;;;;;0.60;0.10;;;12.10;1.00;;;;;;4956518;28;20479;-71
2023/10/15 09:27:59;;;;;;;0.60;0.10;;;12.10;1.00;;;;;;4957227;28;20498;-71
2023/10/15 09:30:30;;;;;;;0.60;0.10;;;12.10;1.00;;;;;;4955667;28;20451;-70
2023/10/15 09:32:58;;;;;;;0.60;0.37;;;12.10;1.00;;;;;;4956117;28;20506;-71
2023/10/15 09:35:28;;;;;;;0.60;0.10;;;12.10;1.00;;;;;;4955730;28;20486;-72
2023/10/15 09:37:58;;;;;;;0.60;0.10;;;12.00;1.00;;;;;;4955735;28;20439;-72
2023/10/15 09:40:30;;;;;;;0.60;0.10;;;12.00;1.00;;;;;;4955914;28;20435;-72
2023/10/15 09:42:59;;;;;;;0.60;0.10;;;12.10;1.00;;;;;;4955486;28;20593;-72
2023/10/15 09:45:30;;;;;;;0.60;0.10;;;12.10;1.00;;;;;;4955608;28;20886;-72
2023/10/15 09:47:59;;;;;;;0.60;0.10;;;12.10;1.00;;;;;;4956369;28;20877;-73
2023/10/15 09:50:31;;;;;;;0.60;0.10;;;12.10;1.00;;;;;;4955955;28;20446;-73
2023/10/15 09:53:09;;;;;;;0.60;0.10;;;12.20;1.00;;;;;;4956266;28;20521;-72
2023/10/15 09:55:38;;;;;;;0.60;0.10;;;12.20;1.00;;;;;;4952690;28;20478;-73
2023/10/15 09:58:09;;;;;;;0.60;0.10;;;;;;;;;;4953476;28;20584;-73
2023/10/15 10:00:47;;;;;;;3.03;2.83;;;12.30;1.00;;;;;;4953052;28;20475;-73
2023/10/15 10:03:25;;;;;;;0.60;0.10;;;;;;;;;;4952923;28;20569;-73
2023/10/15 10:06:09;;;;;;;0.60;0.10;;;12.30;1.00;;;;;;4953439;28;20476;-73
2023/10/15 10:08:56;;;;;;;0.60;0.13;;;12.20;1.00;;;;;;4952803;28;20509;-73
2023/10/15 10:11:43;;;;;;;0.60;0.13;;;12.10;1.00;;;;;;4953192;28;20968;-72
2023/10/15 10:14:29;;;;;;;0.60;0.20;;;12.10;1.00;;;;;;4952924;28;20458;-72
2023/10/15 10:16:57;;;;;;;0.60;0.10;;;12.10;1.00;;;;;;4953495;28;20446;-72
2023/10/15 10:19:29;;;;;;;0.60;0.10;;;12.10;1.00;;;;;;4945676;28;20450;-75
2023/10/15 10:21:58;;;;;;;0.60;0.10;;;;;;;;;;4953072;28;20493;-73
2023/10/15 10:24:41;;;;;;;0.60;0.10;;;12.20;1.00;;;;;;4945238;28;20557;-73
2023/10/15 10:27:15;;;;;;;0.60;0.20;;;12.30;1.00;;;;;;4952896;28;20464;-74
2023/10/15 10:29:44;;;;;;;0.60;0.10;;;12.30;1.00;;;;;;4953013;28;20457;-72
2023/10/15 10:32:15;;;;;;;0.60;0.10;;;12.40;1.00;;;;;;4952744;28;20972;-72
2023/10/15 10:34:44;;;;;;;0.60;0.10;;;12.40;1.00;;;;;;4948141;28;20462;-73
2023/10/15 10:37:23;;;;;;;0.60;0.10;;;12.40;1.00;;;;;;4951846;28;20478;-73
2023/10/15 10:39:52;;;;;;;0.60;0.10;;;;;;;;;;4952462;28;20454;-73
2023/10/15 10:42:23;;;;;;;0.60;0.10;;;12.20;1.00;;;;;;4952761;28;21298;-74
2023/10/15 10:44:51;;;;;;;0.60;0.30;;;12.30;1.00;;;;;;4952456;28;20518;-75
2023/10/15 10:47:21;;;;;;;1.00;0.57;;;12.40;1.00;;;;;;4952290;28;20459;-73
2023/10/15 10:49:58;;;;;;;0.60;0.10;;;;;;;;;;4952554;28;20461;-74
2023/10/15 10:52:30;;;;;;;0.77;0.40;;;12.40;1.00;;;;;;4944654;28;20464;-73
2023/10/15 10:55:29;;;;;;;2.83;0.43;;;12.40;1.00;;;;;;4952551;28;20561;-73
2023/10/15 10:57:57;;;;;;;0.60;0.10;;;;;;;;;;4948199;28;20502;-73
2023/10/15 11:00:25;;;;;;;0.60;0.10;;;;;;;;;;4956129;28;20453;-73
2023/10/15 11:02:54;;;;;;;0.60;0.10;;;12.50;1.00;;;;;;4972518;28;20509;-74
2023/10/15 11:05:23;;;;;;;0.60;0.10;;;12.60;1.00;;;;;;4971944;28;20493;-73
2023/10/15 11:07:52;;;;;;;0.60;0.10;;;12.70;1.00;;;;;;4966347;28;21029;-72
2023/10/15 11:10:21;;;;;;;0.60;0.10;;;12.70;1.00;;;;;;4964229;28;20890;-73
2023/10/15 11:12:50;;;;;;;0.90;0.70;;;;;;;;;;4971493;28;20446;-72
2023/10/15 11:15:20;;;;;;;0.60;0.10;;;12.70;1.00;;;;;;4971630;28;21006;-72
2023/10/15 11:17:57;;;;;;;0.60;0.10;;;12.80;1.00;;;;;;4968005;28;20898;-72
2023/10/15 11:20:27;;;;;;;1.27;0.30;;;12.90;1.00;;;;;;4971666;28;20531;-72
2023/10/15 11:22:55;;;;;;;0.60;0.20;;;12.70;1.00;;;;;;4972124;28;20446;-72
2023/10/15 11:25:24;;;;;;;0.60;0.10;;;12.60;1.00;;;;;;4971965;28;20901;-73
2023/10/15 11:27:52;;;;;;;0.60;0.10;;;;;;;;;;4972221;28;20475;-73
2023/10/15 11:30:21;;;;;;;1.00;0.20;;;12.70;1.00;;;;;;4965782;28;20490;-73
2023/10/15 11:32:51;;;;;;;0.60;0.10;;;12.70;1.00;;;;;;4972084;28;20452;-74
2023/10/15 11:35:20;;;;;;;0.60;0.10;;;12.70;1.00;;;;;;4966589;28;20462;-73
2023/10/15 11:37:50;;;;;;;0.60;0.10;;;12.80;1.00;;;;;;4971467;28;20940;-72
2023/10/15 11:40:20;;;;;;;0.60;0.10;;;12.60;1.00;;;;;;4971889;28;20964;-73
2023/10/15 11:42:51;;;;;;;0.60;0.30;;;12.60;1.00;;;;;;4962708;28;20529;-72
2023/10/15 11:45:25;;;;;;;0.60;0.10;;;12.60;1.00;;;;;;4970595;28;20517;-74
2023/10/15 11:47:56;;;;;;;0.60;0.10;;;12.50;1.00;;;;;;4966238;28;20450;-73
2023/10/15 11:50:24;;;;;;;0.80;0.63;;;12.50;1.00;;;;;;4961158;28;20467;-73
2023/10/15 11:52:55;;;;;;;0.60;0.10;;;12.40;1.00;;;;;;4952637;28;20506;-73
2023/10/15 11:55:23;;;;;;;0.60;0.10;;;12.40;1.00;;;;;;4951840;28;20546;-73
2023/10/15 11:57:54;;;;;;;0.60;0.20;;;12.20;1.00;;;;;;4951993;28;20810;-74
2023/10/15 12:00:31;;;;;;;0.60;0.10;;;12.10;1.00;;;;;;4952125;28;20964;-74
2023/10/15 12:03:00;;;;;;;0.60;0.10;;;12.00;1.00;;;;;;4952283;28;21027;-74
2023/10/15 12:05:31;;;;;;;0.60;0.10;;;11.80;1.00;;;;;;4951961;28;20493;-73
2023/10/15 12:08:00;;;;;;;0.60;0.10;;;11.80;1.00;;;;;;4951646;28;20497;-73
2023/10/15 12:10:29;;;;;;;0.60;0.10;;;11.70;1.00;;;;;;4951920;28;20465;-74
2023/10/15 12:12:59;;;;;;;0.60;0.10;;;11.80;1.20;;;;;;4951837;28;20450;-73
2023/10/15 12:15:30;;;;;;;0.60;0.10;;;;;;;;;;4952322;28;20514;-74
2023/10/15 12:17:59;;;;;;;0.60;0.10;;;11.60;1.00;;;;;;4952176;28;20446;-72
2023/10/15 12:20:27;;;;;;;0.60;0.10;;;11.50;2.30;;;;;;4951507;28;20458;-74
2023/10/15 12:22:55;;;;;;;0.60;0.10;;;11.50;2.50;;;;;;4953512;28;20553;-73
2023/10/15 12:25:23;;;;;;;0.60;0.10;;;11.60;3.10;;;;;;4955115;28;21055;-74
2023/10/15 12:27:51;;;;;;;0.60;0.10;;;11.50;1.90;;;;;;4955393;28;20474;-74
2023/10/15 12:30:23;;;;;;;0.60;0.10;;;11.50;1.00;;;;;;4955977;28;20953;-74
2023/10/15 12:32:53;;;;;;;0.60;0.10;;;11.50;1.00;;;;;;4968225;28;20454;-73
2023/10/15 12:35:22;;;;;;;0.60;0.10;;;;;;;;;;4968568;28;20461;-74
2023/10/15 12:37:58;;;;;;;0.60;0.20;;;11.30;1.00;;;;;;4960510;28;20457;-75
2023/10/15 12:40:31;;;;;;;0.60;0.10;;;11.20;1.00;;;;;;4953014;28;21004;-74
2023/10/15 12:42:59;;;;;;;0.60;0.10;;;11.20;1.00;;;;;;4951423;28;20532;-74
2023/10/15 12:45:29;;;;;;;0.60;0.20;;;11.30;1.90;;;;;;4954067;28;20581;-73
2023/10/15 12:47:59;;;;;;;0.60;0.10;;;11.40;1.20;;;;;;4950141;28;20434;-74
2023/10/15 12:50:27;;;;;;;0.60;0.30;;;10.60;1.00;;;;;;4965536;28;20536;-74
2023/10/15 12:52:56;;;;;;;0.60;0.10;;;11.50;1.00;;;;;;4974491;28;20937;-74
2023/10/15 12:55:24;;;;;;;0.60;0.10;;;;;;;;;;4974056;28;20573;-74
2023/10/15 12:57:53;;;;;;;0.60;0.10;;;11.70;1.00;;;;;;4971191;28;20449;-74
2023/10/15 13:00:21;;;;;;;0.60;0.10;;;11.80;1.00;;;;;;4974217;28;20967;-73
2023/10/15 13:02:53;;;;;;;0.60;0.10;;;11.90;1.00;;;;;;4974217;28;20885;-73
2023/10/15 13:05:22;;;;;;;0.70;0.30;;;12.00;1.00;;;;;;4974296;28;20830;-73
2023/10/15 13:07:51;;;;;;;0.60;0.10;;;12.00;1.00;;;;;;4973095;28;20457;-73
2023/10/15 13:10:21;;;;;;;0.60;0.10;;;12.00;1.00;;;;;;4972264;28;20456;-73
2023/10/15 13:12:50;;;;;;;0.60;0.17;;;12.10;1.00;;;;;;4974129;28;20467;-75
2023/10/15 13:15:19;;;;;;;0.60;0.10;;;12.00;1.00;;;;;;4974138;28;20469;-73
2023/10/15 13:17:48;;;;;;;0.70;0.37;;;;;;;;;;4973957;28;20460;-76
2023/10/15 13:20:18;;;;;;;0.60;0.10;;;12.10;1.00;;;;;;4971023;28;20455;-72
2023/10/15 13:22:46;;;;;;;0.60;0.10;;;12.10;1.00;;;;;;4961577;28;20500;-73
2023/10/15 13:25:15;;;;;;;0.70;0.50;;;;;;;;;;4973924;28;20580;-73
2023/10/15 13:27:43;;;;;;;0.60;0.10;;;12.20;1.00;;;;;;4964535;28;20532;-75
2023/10/15 13:30:15;;;;;;;0.60;0.23;;;12.30;1.00;;;;;;4973528;28;20446;-74
2023/10/15 13:32:44;;;;;;;0.60;0.27;;;12.20;1.00;;;;;;4974213;28;20458;-73
2023/10/15 13:35:13;;;;;;;0.60;0.30;;;12.30;1.00;;;;;;4967045;28;20469;-73
2023/10/15 13:37:43;;;;;;;0.60;0.10;;;12.40;1.00;;;;;;4965753;28;20941;-73
2023/10/15 13:40:12;;;;;;;0.60;0.10;;;12.50;1.00;;;;;;4974065;28;20890;-73
2023/10/15 13:42:42;;;;;;;0.60;0.10;;;12.80;1.00;;;;;;4964979;28;20460;-73
2023/10/15 13:45:12;;;;;;;0.60;0.10;;;13.00;1.00;;;;;;4973409;28;20999;-74
2023/10/15 13:47:40;;;;;;;0.60;0.10;;;13.10;1.00;;;;;;4973874;28;20979;-74
2023/10/15 13:50:12;;;;;;;0.60;0.10;;;13.20;1.00;;;;;;4974024;28;20515;-73
2023/10/15 13:52:43;;;;;;;0.60;0.10;;;;;;;;;;4952969;28;20529;-73
2023/10/15 13:55:12;;;;;;;0.60;0.10;;;13.10;1.00;;;;;;4969605;28;20489;-74
2023/10/15 13:57:41;;;;;;;0.90;0.40;;;13.00;1.00;;;;;;4973243;28;20975;-72
2023/10/15 14:00:12;;;;;;;0.60;0.10;;;12.90;1.00;;;;;;4962545;28;20533;-74
2023/10/15 14:02:41;;;;;;;0.60;0.10;;;12.90;1.00;;;;;;4960616;28;20540;-73
2023/10/15 14:05:13;;;;;;;0.60;0.10;;;;;;;;;;4963271;28;20548;-73
2023/10/15 14:07:44;;;;;;;0.60;0.10;;;12.70;1.00;;;;;;4958622;28;20959;-75
2023/10/15 14:10:13;;;;;;;0.60;0.10;;;12.70;1.00;;;;;;4960532;28;20567;-75
2023/10/15 14:12:41;;;;;;;0.60;0.10;;;12.70;1.00;;;;;;4965724;28;20800;-74
2023/10/15 14:15:13;;;;;;;0.60;0.10;;;12.60;1.00;;;;;;4974473;28;20689;-73
2023/10/15 14:17:42;;;;;;;0.60;0.10;;;12.60;1.00;;;;;;4969909;28;20929;-74
2023/10/15 14:20:14;;;;;;;0.60;0.10;;;12.50;1.00;;;;;;4967266;28;20517;-74
2023/10/15 14:22:44;;;;;;;0.60;0.10;;;12.50;1.00;;;;;;4960272;28;20799;-74
2023/10/15 14:25:13;;;;;;;0.60;0.10;;;12.60;1.00;;;;;;4973793;28;20996;-73
2023/10/15 14:27:41;;;;;;;0.60;0.10;;;12.60;1.00;;;;;;4963856;28;20442;-73
2023/10/15 14:30:10;;;;;;;0.60;0.13;;;;;;;;;;4972489;28;20957;-74
2023/10/15 14:32:38;;;;;;;0.60;0.10;;;12.50;1.00;;;;;;4970253;28;20505;-73
2023/10/15 14:35:09;;;;;;;0.60;0.10;;;12.40;1.00;;;;;;4970798;28;21003;-76
2023/10/15 14:37:40;;;;;;;2.20;2.10;;;12.30;1.00;;;;;;4976281;28;20446;-74
2023/10/15 14:40:10;;;;;;;0.60;0.10;;;12.30;1.00;;;;;;4970195;28;20459;-75
2023/10/15 14:42:39;;;;;;;0.60;0.10;;;12.20;1.00;;;;;;4973877;28;20445;-73
2023/10/15 14:45:11;;;;;;;0.60;0.10;;;12.20;1.00;;;;;;4973557;28;20462;-72
2023/10/15 14:47:39;;;;;;;0.60;0.10;;;;;;;;;;4966846;28;21048;-72
2023/10/15 14:50:08;;;;;;;0.60;0.10;;;12.40;1.00;;;;;;4969286;28;20949;-73
2023/10/15 14:52:36;;;;;;;0.60;0.10;;;12.50;1.00;;;;;;4970459;28;20561;-75
2023/10/15 14:55:04;;;;;;;0.60;0.10;;;;;;;;;;4968648;28;20548;-73
2023/10/15 14:57:33;;;;;;;0.60;0.10;;;12.50;1.00;;;;;;4972997;28;20528;-73
2023/10/15 15:00:03;;;;;;;0.60;0.10;;;;;;;;;;4968044;28;20454;-73
2023/10/15 15:02:32;;;;;;;0.60;0.10;;;;;;;;;;4970884;28;20488;-74
2023/10/15 15:05:00;;;;;;;0.60;0.10;;;12.60;1.00;;;;;;4968216;28;20476;-72
2023/10/15 15:07:28;;;;;;;0.60;0.10;;;12.70;1.00;;;;;;4973420;28;20485;-73
2023/10/15 15:09:56;;;;;;;0.60;0.10;;;12.70;1.00;;;;;;4969587;28;21057;-73
2023/10/15 15:12:24;;;;;;;0.60;0.10;;;;;;;;;;4963729;28;20469;-73
2023/10/15 15:14:53;;;;;;;0.60;0.10;;;12.80;1.00;;;;;;4973612;28;20472;-73
2023/10/15 15:17:21;;;;;;;0.60;0.10;;;12.80;1.00;;;;;;4972992;28;20497;-72
2023/10/15 15:19:50;;;;;;;0.70;0.30;;;12.90;1.00;;;;;;4970240;28;20449;-72
2023/10/15 15:22:18;;;;;;;0.60;0.10;;;12.90;1.00;;;;;;4970871;28;20458;-75
2023/10/15 15:24:46;;;;;;;0.60;0.10;;;12.90;1.00;;;;;;4966063;28;20489;-73
2023/10/15 15:27:15;;;;;;;0.70;0.33;;;12.90;1.00;;;;;;4968317;28;20485;-73
2023/10/15 15:29:45;;;;;;;0.60;0.10;;;13.00;1.00;;;;;;4972111;28;20434;-73
2023/10/15 15:32:15;;;;;;;0.60;0.10;;;13.00;1.00;;;;;;4969291;28;20447;-73
2023/10/15 15:34:44;;;;;;;0.60;0.10;;;12.90;1.00;;;;;;4963230;28;20537;-72
2023/10/15 15:37:12;;;;;;;0.60;0.10;;;12.80;1.00;;;;;;4961607;28;20442;-72
2023/10/15 15:39:40;;;;;;;0.60;0.10;;;;;;;;;;4960211;28;20810;-74
2023/10/15 15:42:08;;;;;;;0.60;0.10;;;12.70;1.00;;;;;;4961480;28;20496;-74
2023/10/15 15:44:36;;;;;;;0.60;0.10;;;12.60;1.00;;;;;;4961594;28;20458;-73
2023/10/15 15:47:07;;;;;;;0.60;0.10;;;12.60;1.00;;;;;;4972984;28;20585;-74
2023/10/15 15:49:36;;;;;;;0.60;0.10;;;12.60;1.00;;;;;;4972346;28;20472;-73
2023/10/15 15:52:05;;;;;;;0.60;0.10;;;12.60;1.00;;;;;;4967507;28;20536;-73
2023/10/15 15:54:33;;;;;;;0.60;0.10;;;12.50;1.00;;;;;;4972617;28;20553;-72
2023/10/15 15:57:02;;;;;;;0.70;0.33;;;;;;;;;;4972987;28;20533;-74
2023/10/15 15:59:30;;;;;;;0.60;0.10;;;12.60;1.00;;;;;;4974033;28;20502;-73
2023/10/15 16:01:58;;;;;;;0.60;0.10;;;12.50;1.00;;;;;;4971811;28;20461;-73
2023/10/15 16:04:26;;;;;;;0.60;0.10;;;12.50;1.00;;;;;;4975887;28;20552;-73
2023/10/15 16:06:55;;;;;;;0.60;0.10;;;12.50;1.00;;;;;;4976144;28;20485;-73
2023/10/15 16:09:23;;;;;;;0.60;0.10;;;12.50;1.00;;;;;;4973489;28;20508;-74
2023/10/15 16:11:51;;;;;;;0.60;0.10;;;12.40;1.00;;;;;;4976723;28;20455;-73
2023/10/15 16:14:19;;;;;;;0.60;0.10;;;12.40;1.00;;;;;;4977107;28;20472;-74
2023/10/15 16:16:47;;;;;;;0.60;0.10;;;12.40;1.00;;;;;;4959284;28;20932;-73
2023/10/15 16:19:15;;;;;;;0.60;0.10;;;12.40;1.00;;;;;;4957744;28;20456;-73
2023/10/15 16:21:42;;;;;;;0.60;0.10;;;12.30;1.00;;;;;;4974711;28;20924;-75
2023/10/15 16:24:12;;;;;;;0.60;0.10;;;12.40;1.00;;;;;;4975234;28;20469;-74
2023/10/15 16:26:42;;;;;;;0.60;0.10;;;12.40;1.00;;;;;;4975088;28;20500;-74
2023/10/15 16:29:10;;;;;;;0.60;0.10;;;12.30;1.00;;;;;;4972595;28;20458;-72
2023/10/15 16:31:38;;;;;;;0.60;0.30;;;12.30;1.00;;;;;;4975793;28;20489;-75
2023/10/15 16:34:06;;;;;;;0.60;0.10;;;12.20;1.00;;;;;;4969500;28;20467;-73
2023/10/15 16:36:34;;;;;;;0.60;0.10;;;12.20;1.00;;;;;;4963829;28;20449;-73
2023/10/15 16:39:02;;;;;;;0.60;0.10;;;12.20;1.00;;;;;;4968864;28;20512;-74
2023/10/15 16:41:31;;;;;;;0.60;0.20;;;12.10;1.00;;;;;;4975162;28;20449;-75
2023/10/15 16:43:59;;;;;;;0.60;0.10;;;12.00;1.00;;;;;;4969549;28;20477;-74
2023/10/15 16:46:27;;;;;;;0.60;0.10;;;12.00;1.00;;;;;;4972380;28;20481;-76
2023/10/15 16:48:55;;;;;;;0.60;0.10;;;11.90;1.00;;;;;;4968874;28;20450;-74
2023/10/15 16:51:23;;;;;;;0.60;0.10;;;11.80;1.00;;;;;;4974764;28;20472;-71
2023/10/15 16:53:53;;;;;;;0.60;0.10;;;11.70;1.00;;;;;;4963297;28;20471;-74
2023/10/15 16:56:21;;;;;;;0.60;0.10;;;11.60;1.00;;;;;;4966414;28;20481;-73
2023/10/15 16:58:51;;;;;;;0.60;0.10;;;11.60;1.00;;;;;;4971687;28;20937;-73
2023/10/15 17:01:20;;;;;;;0.60;0.10;;;;;;;;;;4955866;28;20482;-74
2023/10/15 17:03:48;;;;;;;0.70;0.30;;;11.60;1.00;;;;;;4960420;28;20879;-73
2023/10/15 17:06:16;;;;;;;0.60;0.10;;;11.50;1.00;;;;;;4963641;28;20454;-73
2023/10/15 17:08:44;;;;;;;0.60;0.10;;;11.40;1.00;;;;;;4972915;28;20463;-73
2023/10/15 17:11:12;;;;;;;0.60;0.10;;;11.50;1.00;;;;;;4973066;28;20533;-74
2023/10/15 17:13:40;;;;;;;0.60;0.10;;;11.40;1.00;;;;;;4974050;28;20960;-73
2023/10/15 17:16:09;;;;;;;0.60;0.10;;;11.40;1.00;;;;;;4974864;28;20448;-73
2023/10/15 17:18:37;;;;;;;0.60;0.10;;;11.30;1.00;;;;;;4974550;28;20444;-73
2023/10/15 17:21:04;;;;;;;0.60;0.10;;;11.30;1.00;;;;;;4974291;28;20457;-74